NY Terminal Aviation Weather Discussion (AFD) - Prepared: 613 PM EST FRI FEB 27 2015
HIGH PRESSURE BUILDS IN FROM THE WEST TONIGHT...THEN OVER THE AREA 
LATE SATURDAY.

VFR THROUGH THE TAF PERIOD.

WNW WINDS LESS THAN 10 KT THROUGH SATURDAY MORNING...BACKING WEST
SAT AFT. OCCASIONAL GUSTS OF 15KT POSSIBLE METRO TERMINALS THIS
EVENING. LIGHT AND VARIABLE WINDS SAT EVENING.

5 Day General Aviation Outlook:

.OUTLOOK FOR 00Z SUNDAY THROUGH WEDNESDAY...
.SAT NIGHT-SUN MORN...VFR.
.SUN AFTN-EARLY MON MORN...MVFR OR LOWER IN -SN CHANGING TO A
WINTRY MIX COAST AND -SN INLAND SUN NIGHT. SE SFC WND G15-20KT
POSSIBLE SUN AFTN.
.MON-TUE MORN...VFR. NW WINDS G15-25KT MON AFTN/EVE.
.TUE AFTN-WED...IFR POSSIBLE IN -SN CHANGING TO A WINTRY MIX TUE
NGT. RA LATE TUE NGT/WED MORN. BECOMING VFR LATE WED. LLWS
POSSIBLE TUE NGT-WED.


NY Metro Terminal Aviation Weather Summary: (Explanation of Color Coding)
NOTE: All Wind Directions are TRUE (add 13 degrees for magnetic directions). Tail and Crosswind Calculations do account for the magnetic deviation of runways.

Click on the Airport Below for Specific Information at that Terminal

TAF Overview JFK TAF LGA TAF EWR TAF TEB TAF HPN TAF ISP TAF

NOTE - A Recent Software Upgrade has caused TAF graphics not to Update.

Hope to have this fixed soon (1/18/15)

Jump to AirSpace Impacts Section Condensed "lite" version of SPA page
**************************************************************************************
KJFK Terminal Weather: (Wind Directions Are True, Except Where Noted, ADD 13 degrees for Magnetic)

5MIN KJFK 280025Z 31010KT 10SM CLR M02/M16 A3051 -520 
     35 -2700 320/10 RMK AO2 $
5MIN KJFK 280020Z 32009G22KT 10SM CLR M02/M16 A3050 
     -520 35 -2700 330/09G22 RMK AO2 $
********************************************
****        MAGNETIC DIRECTIONS         ****
********************************************
KJFK 02/28/2015 00:37:06 GMT 330 13 KT
KJFK 02/28/2015 00:35:06 GMT 330 11 KT
KJFK 02/28/2015 00:33:28 GMT 330 11 KT
KJFK 02/28/2015 00:31:06 GMT 330 13 KT
KJFK 02/28/2015 00:29:06 GMT 320 11 KT
KJFK 02/28/2015 00:27:28 GMT 320 11 KT
KJFK 02/28/2015 00:25:06 GMT 320 10 KT
KJFK 02/28/2015 00:23:06 GMT 320 10 KT
KJFK 02/28/2015 00:21:27 GMT 330 10 KT
KJFK 02/28/2015 00:19:06 GMT 330 10 KT
SAUS70 KJFK 280000 RRL
METAR KJFK 272351Z 31009KT 10SM FEW250 M02/M16 A3049 RMK AO2 SLP324
     4/001 T10171161 10000 21022 53024 $
FTNA35 KJFK 272336 RRD
KJFK 272330Z 2800/0106 31008KT P6SM FEW250
     TEMPO 2800/2804 31010G16KT
     FM281900 29007KT P6SM SCT200
     FM010000 VRB04KT P6SM BKN200
KJFK FCSTER COMMENTS: WINDS GENERALLY RIGHT OF 310 MAGNETIC IN THE
MORNING...BACKING TO LEFT OF 310 MAG AFTER 18-20Z.

jfk

JFK Hourly Forecast Temperature (C)

JFK Hourly TMPS
**************************************************************************************
KLGA Terminal Weather: (Wind Directions Are True, Except Where Noted, ADD 13 degrees for Magnetic)

5MIN KLGA 280030Z 32012KT 10SM CLR M03/M15 A3050 -500 
     39 -2700 330/12 RMK AO2
5MIN KLGA 280025Z 32013KT 10SM CLR M03/M15 A3050 -500 
     39 -2700 330/13 RMK AO2
5MIN KLGA 280020Z 32014KT 10SM CLR M03/M15 A3049 -500 
     39 -2700 330/14 RMK AO2
********************************************
****        MAGNETIC DIRECTIONS         ****
********************************************
KLGA 02/28/2015 00:37:56 GMT 340 13 KT
KLGA 02/28/2015 00:35:55 GMT 350 13 KT
KLGA 02/28/2015 00:33:55 GMT 350 14 KT
KLGA 02/28/2015 00:31:56 GMT 350 14 KT
KLGA 02/28/2015 00:29:56 GMT 340 14 KT
KLGA 02/28/2015 00:27:55 GMT 350 14 KT
KLGA 02/28/2015 00:25:55 GMT 340 13 G17KT
KLGA 02/28/2015 00:23:56 GMT 340 13 G17KT
KLGA 02/28/2015 00:21:55 GMT 350 13 G17KT
KLGA 02/28/2015 00:19:56 GMT 340 15 KT
SAUS70 KLGA 280000
METAR KLGA 272351Z 32011KT 10SM FEW250 M02/M16 A3048 RMK AO2 SLP320
     4/005 T10221156 11011 21033 53024
FTUS80 KLGA 272333 RRC
KLGA 272330Z 2800/2824 32008KT P6SM FEW250
      TEMPO 2800/2804 31010G16KT
KLGA FCSTER COMMENTS: WINDS GENERALLY RIGHT OF 310 MAGNETIC IN THE
MORNING...BACKING TO LEFT OF 310 MAG AFTER 18-20Z.

lga


**************************************************************************************

KEWR Terminal Weather: (Wind Directions Are True, Except Where Noted, ADD 13 degrees for Magnetic)

5MIN KEWR 280025Z 30010KT 10SM FEW250 M03/M15 A3051 
     -520 40 -2800 310/10 RMK AO2
5MIN KEWR 280020Z 30010KT 10SM FEW250 M03/M15 A3051 
     -510 40 -2800 310/10 RMK AO2
********************************************
****        MAGNETIC DIRECTIONS         ****
********************************************
KEWR 02/28/2015 00:37:33 GMT 330 14 KT
KEWR 02/28/2015 00:35:33 GMT 340 15 KT
KEWR 02/28/2015 00:33:33 GMT 340 12 KT
KEWR 02/28/2015 00:31:33 GMT 330 13 KT
KEWR 02/28/2015 00:29:33 GMT 330 10 KT
KEWR 02/28/2015 00:27:33 GMT 330 09 KT
KEWR 02/28/2015 00:25:33 GMT 340 12 KT
KEWR 02/28/2015 00:23:33 GMT 340 11 KT
KEWR 02/28/2015 00:21:33 GMT 340 11 KT
KEWR 02/28/2015 00:19:33 GMT 340 13 KT
SAUS70 KEWR 280000
METAR KEWR 272351Z 30012KT 10SM FEW060 SCT250 M03/M15 A3049 RMK AO2
     SLP324 4/004 T10281150 11011 21028 53025
FTUS80 KEWR 272333 RRB
KEWR 272330Z 2800/0106 31008KT P6SM FEW250
      TEMPO 2800/2804 31010G16KT
     FM281900 29006KT P6SM SCT200
     FM010000 VRB04KT P6SM BKN200
KEWR FCSTER COMMENTS: WINDS GENERALLY RIGHT OF 310 MAGNETIC IN THE
MORNING...BACKING TO LEFT OF 310 MAG AFTER 18-20Z.

ewr
Afternoon EWR Haze Potential Forecast: KEWR Haze Forecast Not Available at This Time
IS NOT AVAILABLE AT THIS TIME


******************************************************************************

KTEB Terminal Weather:
SAUS80 KTEB 280000
METAR KTEB 272351Z 33007KT 10SM CLR M03/M17 A3048 RMK AO2 SLP322
     T10331167 11011 21033 53027
FTUS80 KTEB 272333 RRE
KTEB 272330Z 2800/2824 33008KT P6SM FEW250
     FM280400 33005KT P6SM SKC
     FM282000 VRB05KT P6SM SCT200
KTEB FCSTER COMMENTS: NO UNSCHEDULED AMENDMENTS EXPECTED. 

teb

 


**************************************************************************************

KHPN Terminal Weather:
SAUS70 KHPN 280000 RRC
METAR KHPN 272356Z 29005KT 10SM CLR M05/M17 A3044 RMK AO2 SLP323
     T10501172 11033 21056 53025
FTUS80 KHPN 272333 RRB
KHPN 272330Z 2800/2824 32008KT P6SM FEW250
     FM280400 33005KT P6SM SKC
     FM282000 VRB05KT P6SM SCT200 AMD NOT SKED
KHPN FCSTER COMMENTS: NO UNSCHEDULED AMENDMENTS EXPECTED. 

HPN


******************************************************************************

KISP Terminal Weather:
SAUS70 KISP 280000 RRC
METAR KISP 272356Z 00000KT 10SM CLR M04/M15 A3046 RMK AO2 SLP316 4/008
     T10441150 11022 21044 53023
FTUS80 KISP 272333 RRC
KISP 272330Z 2800/2824 31008KT P6SM FEW250
     FM280600 VRB04KT P6SM SKC
     FM281400 33007KT P6SM SKC
     FM282000 29005KT P6SM SCT200
KISP FCSTER COMMENTS: NO UNSCHEDULED AMENDMENTS EXPECTED. 

ISP

 


ZNY SWAP Season Information

(ZNY SWAP STATEMENT) (Click for PDF File) (ZNY BRIEFING) (Click for PDF File)

*******************************************************
***        NY AIR ROUTE TRAFFIC CONTROL CENTER      ***
***                DAILY SWAP STATEMENT             ***
*******************************************************
NY AIR ROUTE TRAFFIC CONTROL CENTER
DAILY SWAP STATEMENT
SUNDAY OCTOBER 26, 2014
ROUTINE SWAP STATEMENTS ARE ISSUED 
BETWEEN APRIL 1 AND SEPTEMBER 30.
SWAP STATEMENTS WILL BE ISSUED IF TS ARE 
EXPECTED TO IMPACT OPERATIONS.
$$



N90 AirSpace Impacts

N90 Compression Forecast

N90 Compression Forecast

N90 Icing Forecast

N90 Icing Forecast

N90 Thunderstorm Forecast (Issued if Expected)

N90 Day 2 SWAP Outlook

 

Surface Weather Map

Surface Weather map

National Collaborative Convective Forecast Product (CCFP) Forecasts (Mar-Oct)


Vertical Wind Profile
Untitled Document